createdAt,value
2023-04-22T08:32:37.616Z,37.46
2023-04-22T08:35:05.612Z,36.13
2023-04-22T08:37:32.648Z,34.83
2023-04-22T08:39:59.514Z,34.78
2023-04-22T08:42:27.558Z,34.04
2023-04-22T08:44:54.915Z,32.89
2023-04-22T08:47:22.112Z,32.59
2023-04-22T08:49:51.349Z,31.58
2023-04-22T08:52:18.633Z,31.85
2023-04-22T08:54:45.538Z,32.86
2023-04-22T08:57:12.593Z,31.38
2023-04-22T08:59:40.641Z,32.88
2023-04-22T09:02:08.909Z,32.91
2023-04-22T09:04:36.574Z,33.23
2023-04-22T09:07:04.191Z,34.14
2023-04-22T09:09:32.308Z,30.82
2023-04-22T09:11:59.180Z,29.61
2023-04-22T09:14:26.952Z,30.12
2023-04-22T09:16:53.937Z,31.82
2023-04-22T09:19:24.217Z,31.25
2023-04-22T09:21:53.695Z,30.62
2023-04-22T09:24:21.238Z,30.29
2023-04-22T09:26:48.090Z,30.60
2023-04-22T09:29:16.037Z,32.05
2023-04-22T09:31:43.091Z,29.40
2023-04-22T09:34:09.952Z,27.35
2023-04-22T09:36:39.695Z,27.90
2023-04-22T09:39:09.770Z,28.64
2023-04-22T09:41:38.968Z,28.98
2023-04-22T09:44:11.065Z,29.13
2023-04-22T09:46:38.003Z,28.11
2023-04-22T09:49:04.840Z,27.77
2023-04-22T09:51:32.266Z,26.85
2023-04-22T09:54:09.180Z,26.80
2023-04-22T09:56:48.611Z,29.59
2023-04-22T09:59:26.216Z,27.16
2023-04-22T10:01:55.424Z,26.74
2023-04-22T10:04:23.489Z,26.41
2023-04-22T10:06:51.305Z,25.34
2023-04-22T10:09:20.217Z,26.59
2023-04-22T10:11:48.249Z,27.48
2023-04-22T10:14:15.359Z,25.45
2023-04-22T10:16:45.436Z,24.69
2023-04-22T10:19:18.097Z,25.08
2023-04-22T10:25:21.954Z,25.25
2023-04-22T10:28:02.097Z,25.46
2023-04-22T10:30:33.971Z,25.55
2023-04-22T10:33:27.870Z,23.70
2023-04-22T10:36:20.259Z,24.41
2023-04-22T10:38:50.155Z,25.21
2023-04-22T10:41:17.462Z,24.54
2023-04-22T10:43:48.706Z,23.03
2023-04-22T10:46:30.959Z,21.65
2023-04-22T10:48:58.081Z,21.16
2023-04-22T10:51:44.472Z,21.13
2023-04-22T10:54:28.768Z,21.04
2023-04-22T10:57:14.690Z,21.08
2023-04-22T10:59:56.087Z,20.68
2023-04-22T11:02:23.968Z,20.55
2023-04-22T11:04:54.673Z,20.66
2023-04-22T11:07:31.991Z,19.02
2023-04-22T11:10:09.914Z,19.54
2023-04-22T11:12:39.464Z,20.22
2023-04-22T11:15:10.414Z,19.00
2023-04-22T11:17:38.482Z,19.42
2023-04-22T11:20:06.726Z,19.03
2023-04-22T11:22:38.604Z,17.99
2023-04-22T11:25:06.597Z,17.80
2023-04-22T11:27:34.479Z,16.86
2023-04-22T11:30:08.410Z,16.79
2023-04-22T11:32:43.412Z,16.31
2023-04-22T11:35:12.334Z,15.57
2023-04-22T11:37:49.355Z,15.72
2023-04-22T11:40:30.116Z,14.68
2023-04-22T11:43:02.567Z,14.68
2023-04-22T11:45:30.949Z,14.93
2023-04-22T11:47:58.105Z,15.50
2023-04-22T11:50:27.570Z,13.69
2023-04-22T11:52:58.763Z,13.78
2023-04-22T11:55:31.963Z,13.91
2023-04-22T11:58:17.736Z,13.40
2023-04-22T12:00:46.834Z,13.39
2023-04-22T12:03:18.074Z,13.85
2023-04-22T12:05:46.691Z,14.65
2023-04-22T12:08:18.939Z,13.27
2023-04-22T12:10:46.764Z,12.95
2023-04-22T12:13:21.660Z,12.93
2023-04-22T12:15:49.337Z,12.26
2023-04-22T12:18:16.217Z,12.87
2023-04-22T12:20:43.104Z,13.15
2023-04-22T12:23:14.702Z,13.44
2023-04-22T12:25:42.235Z,13.09
2023-04-22T12:28:09.127Z,13.51
2023-04-22T12:30:36.094Z,13.60
2023-04-22T12:33:03.080Z,14.54
2023-04-22T12:35:29.900Z,14.87
2023-04-22T12:37:56.739Z,15.60
2023-04-22T12:40:23.857Z,15.58
2023-04-22T12:42:50.711Z,14.67
2023-04-22T12:45:17.631Z,14.87
2023-04-22T12:47:45.451Z,14.82
